createdAt,value
2022-09-30T00:01:43.033Z,16.40
2022-09-30T00:04:14.951Z,16.38
2022-09-30T00:06:42.680Z,16.29
2022-09-30T00:09:13.122Z,16.30
2022-09-30T00:11:41.843Z,16.26
2022-09-30T00:14:15.250Z,16.15
2022-09-30T00:16:42.794Z,16.26
2022-09-30T00:19:10.144Z,16.29
2022-09-30T00:21:38.259Z,16.20
2022-09-30T00:24:07.507Z,16.13
2022-09-30T00:26:35.805Z,16.00
2022-09-30T00:29:03.577Z,15.95
2022-09-30T00:31:34.739Z,15.91
2022-09-30T00:34:08.732Z,15.80
2022-09-30T00:36:45.662Z,15.76
2022-09-30T00:39:22.035Z,15.71
2022-09-30T00:41:53.412Z,15.65
2022-09-30T00:45:11.022Z,15.65
2022-09-30T00:47:56.477Z,15.72
2022-09-30T00:50:37.189Z,15.70
2022-09-30T00:53:14.674Z,15.66
2022-09-30T00:55:51.953Z,15.60
2022-09-30T00:58:30.293Z,15.55
2022-09-30T01:01:00.308Z,15.56
2022-09-30T01:03:31.189Z,15.54
2022-09-30T01:05:58.853Z,15.52
2022-09-30T01:08:28.337Z,15.52
2022-09-30T01:10:55.504Z,15.52
2022-09-30T01:13:27.542Z,15.47
2022-09-30T01:16:19.751Z,15.48
2022-09-30T01:19:15.106Z,15.43
2022-09-30T01:22:01.442Z,15.38
2022-09-30T01:24:58.186Z,15.31
2022-09-30T01:27:47.058Z,15.30
2022-09-30T01:30:22.209Z,15.32
2022-09-30T01:33:21.470Z,15.31
2022-09-30T01:35:49.102Z,15.36
2022-09-30T01:38:22.246Z,15.42
2022-09-30T01:40:53.987Z,15.30
2022-09-30T01:43:48.122Z,15.26
2022-09-30T01:46:38.919Z,15.29
2022-09-30T01:49:31.305Z,15.21
2022-09-30T01:52:07.488Z,15.13
2022-09-30T01:55:00.823Z,15.11
2022-09-30T01:58:05.775Z,15.10
2022-09-30T02:00:38.452Z,15.01
2022-09-30T02:03:27.896Z,15.05
2022-09-30T02:06:02.478Z,15.01
2022-09-30T02:08:41.665Z,15.09
2022-09-30T02:11:15.825Z,15.03
2022-09-30T02:13:50.507Z,15.04
2022-09-30T02:16:42.616Z,15.07
2022-09-30T02:19:30.197Z,15.08
2022-09-30T02:22:02.263Z,15.08
2022-09-30T02:24:38.807Z,14.88
2022-09-30T02:27:12.919Z,15.14
2022-09-30T02:29:45.911Z,15.13
2022-09-30T02:32:32.091Z,15.06
2022-09-30T02:35:19.923Z,15.04
2022-09-30T02:37:56.486Z,15.06
2022-09-30T02:40:36.682Z,15.03
2022-09-30T02:43:05.662Z,14.93
2022-09-30T02:45:50.553Z,14.86
2022-09-30T02:48:33.466Z,14.79
2022-09-30T02:51:38.079Z,14.96
2022-09-30T02:54:11.314Z,14.89
2022-09-30T02:56:50.723Z,14.85
2022-09-30T02:59:18.654Z,14.89
2022-09-30T03:01:45.945Z,14.89
2022-09-30T03:04:16.214Z,14.89
2022-09-30T03:06:43.917Z,14.85
2022-09-30T03:09:11.315Z,14.80
2022-09-30T03:11:38.790Z,14.78
2022-09-30T03:14:24.358Z,14.82
2022-09-30T03:17:19.151Z,14.77
2022-09-30T03:19:58.543Z,14.73
2022-09-30T03:22:44.525Z,14.71
2022-09-30T03:25:20.855Z,14.69
2022-09-30T03:28:06.170Z,14.67
2022-09-30T03:31:12.331Z,14.66
2022-09-30T03:33:51.832Z,14.66
2022-09-30T03:36:32.274Z,14.62
2022-09-30T03:39:02.762Z,14.56
2022-09-30T03:41:33.089Z,14.51
2022-09-30T03:44:22.356Z,14.44
2022-09-30T03:47:01.512Z,14.34
2022-09-30T03:49:34.818Z,14.17
2022-09-30T03:52:11.102Z,14.33
2022-09-30T03:55:08.058Z,14.36
2022-09-30T03:57:35.450Z,14.32
2022-09-30T04:00:04.667Z,14.31
2022-09-30T04:02:32.918Z,14.29
2022-09-30T04:05:00.009Z,14.28
2022-09-30T04:07:32.580Z,14.22
2022-09-30T04:10:01.883Z,14.21
2022-09-30T04:12:31.089Z,14.13
2022-09-30T04:14:58.291Z,14.14
2022-09-30T04:17:25.547Z,14.12
2022-09-30T04:19:52.941Z,14.03
2022-09-30T04:22:23.190Z,14.04
2022-09-30T04:24:53.524Z,14.04
2022-09-30T04:27:20.663Z,14.02
2022-09-30T04:29:47.981Z,14.09
2022-09-30T04:32:15.385Z,14.09
2022-09-30T04:34:42.557Z,14.11
2022-09-30T04:37:11.030Z,14.15
2022-09-30T04:39:38.524Z,14.21
2022-09-30T04:42:06.301Z,14.24
2022-09-30T04:44:33.413Z,14.24
2022-09-30T04:47:06.886Z,14.24
2022-09-30T04:49:58.151Z,14.21
2022-09-30T04:52:25.149Z,14.23
2022-09-30T04:54:54.117Z,14.25
2022-09-30T04:57:21.348Z,14.28
2022-09-30T04:59:51.095Z,14.32
2022-09-30T05:02:18.373Z,14.39
2022-09-30T05:04:45.774Z,14.49
2022-09-30T05:07:13.046Z,14.55
2022-09-30T05:09:40.508Z,14.63
2022-09-30T05:12:08.376Z,14.67
2022-09-30T05:14:35.752Z,14.76
2022-09-30T05:17:03.001Z,14.88
2022-09-30T05:19:30.930Z,14.91
2022-09-30T05:21:58.237Z,14.90
2022-09-30T05:24:25.422Z,15.00
2022-09-30T05:26:54.181Z,14.98
2022-09-30T05:29:21.416Z,14.96
2022-09-30T05:31:48.939Z,15.08
2022-09-30T05:34:17.022Z,15.18
2022-09-30T05:36:44.567Z,15.28
2022-09-30T05:39:11.737Z,15.42
2022-09-30T05:41:39.185Z,15.53
2022-09-30T05:44:08.777Z,15.68
2022-09-30T05:46:36.011Z,15.81
2022-09-30T05:49:03.480Z,15.97
2022-09-30T05:51:31.852Z,16.13
2022-09-30T05:54:00.921Z,16.29
2022-09-30T05:56:34.963Z,16.42
2022-09-30T05:59:02.364Z,16.51
2022-09-30T06:06:20.352Z,16.79
2022-09-30T06:08:47.987Z,16.79
2022-09-30T06:11:20.899Z,16.95
2022-09-30T06:13:48.859Z,17.03
2022-09-30T06:16:18.777Z,17.22
2022-09-30T06:18:46.830Z,17.35
2022-09-30T06:21:16.111Z,17.44
2022-09-30T06:23:47.134Z,17.47
2022-09-30T06:26:15.021Z,17.70
2022-09-30T06:28:43.290Z,17.76
2022-09-30T06:31:11.634Z,17.84
2022-09-30T06:33:39.300Z,17.84
2022-09-30T06:36:07.582Z,17.92
2022-09-30T06:42:25.197Z,18.14
2022-09-30T06:44:53.680Z,18.29
2022-09-30T06:47:25.218Z,18.44
2022-09-30T06:49:58.672Z,18.57
2022-09-30T06:52:27.278Z,18.68
2022-09-30T06:54:58.004Z,18.73
2022-09-30T06:57:27.961Z,18.84
2022-09-30T06:59:56.269Z,18.93
2022-09-30T07:02:23.578Z,19.02
2022-09-30T07:04:51.214Z,19.10
2022-09-30T07:07:20.281Z,19.19
2022-09-30T07:09:47.869Z,19.30
2022-09-30T07:12:15.402Z,19.51
2022-09-30T07:14:42.666Z,19.63
2022-09-30T07:17:10.038Z,19.67
2022-09-30T07:19:37.116Z,19.81
2022-09-30T07:22:26.031Z,19.92
2022-09-30T07:24:54.277Z,20.03
2022-09-30T07:27:22.008Z,20.14
2022-09-30T07:30:08.196Z,20.22
2022-09-30T07:32:37.642Z,20.34
2022-09-30T07:35:06.275Z,20.51
2022-09-30T07:37:36.240Z,20.55
2022-09-30T07:40:07.298Z,20.71
2022-09-30T07:42:39.524Z,20.83
2022-09-30T07:45:08.048Z,20.91
2022-09-30T07:47:35.293Z,21.05
2022-09-30T07:50:02.459Z,21.18
2022-09-30T07:52:30.454Z,21.39
2022-09-30T07:54:57.765Z,21.48
2022-09-30T07:57:24.851Z,21.60
2022-09-30T07:59:52.307Z,21.75
2022-09-30T08:02:19.746Z,21.86
2022-09-30T08:04:47.497Z,21.94
2022-09-30T08:07:17.318Z,22.14
2022-09-30T08:09:44.876Z,22.32
2022-09-30T08:12:12.243Z,22.35
2022-09-30T08:14:39.694Z,22.38
2022-09-30T08:17:07.116Z,22.52
2022-09-30T08:19:35.494Z,22.58
2022-09-30T08:24:35.560Z,22.71
2022-09-30T08:27:03.173Z,22.75
2022-09-30T08:32:18.561Z,23.01
2022-09-30T08:34:46.140Z,23.16
2022-09-30T08:37:13.900Z,23.26
2022-09-30T08:39:42.504Z,23.36
2022-09-30T08:42:43.768Z,23.42
2022-09-30T08:45:36.545Z,23.56
2022-09-30T08:48:30.292Z,23.64
2022-09-30T08:51:14.629Z,23.74
2022-09-30T08:53:46.794Z,23.83
2022-09-30T08:56:24.050Z,23.82
2022-09-30T08:58:57.310Z,23.91
2022-09-30T09:01:36.624Z,24.11
2022-09-30T09:04:06.898Z,24.17
2022-09-30T09:07:05.684Z,24.28
2022-09-30T09:10:10.487Z,24.31
2022-09-30T09:13:21.917Z,24.45
2022-09-30T09:16:08.079Z,24.53
2022-09-30T09:19:15.606Z,24.59
2022-09-30T09:21:57.436Z,24.60
2022-09-30T09:24:50.759Z,24.70
2022-09-30T09:27:25.068Z,24.71
2022-09-30T09:30:15.279Z,24.81
2022-09-30T09:32:48.454Z,24.84
2022-09-30T09:35:27.924Z,25.00
2022-09-30T09:38:22.784Z,25.17
2022-09-30T09:41:11.132Z,25.24
2022-09-30T09:43:49.518Z,25.35
2022-09-30T09:46:27.067Z,25.36
2022-09-30T09:49:13.920Z,25.33
2022-09-30T09:51:48.526Z,25.40
2022-09-30T09:54:21.257Z,25.43
2022-09-30T09:56:49.039Z,25.40
2022-09-30T09:59:19.863Z,25.27
2022-09-30T10:01:54.565Z,25.24
2022-09-30T10:04:27.758Z,25.33
2022-09-30T10:07:13.420Z,25.46
2022-09-30T10:09:43.330Z,25.49
2022-09-30T10:12:13.856Z,25.36
2022-09-30T10:14:49.199Z,25.30
2022-09-30T10:17:37.462Z,25.28
2022-09-30T10:20:16.495Z,25.10
2022-09-30T10:22:44.030Z,25.37
2022-09-30T10:25:14.086Z,25.53
2022-09-30T10:27:56.979Z,25.63
2022-09-30T10:30:36.702Z,25.71
2022-09-30T10:33:04.448Z,25.74
2022-09-30T10:35:32.123Z,25.80
2022-09-30T10:38:00.723Z,25.83
2022-09-30T10:40:30.420Z,25.81
2022-09-30T10:42:58.617Z,25.94
2022-09-30T10:45:38.947Z,25.98
2022-09-30T10:48:16.832Z,26.01
2022-09-30T10:50:54.062Z,26.03
2022-09-30T10:53:31.147Z,26.13
2022-09-30T10:56:01.788Z,26.26
2022-09-30T10:58:51.279Z,26.32
2022-09-30T11:01:32.763Z,26.38
2022-09-30T11:04:22.136Z,26.55
2022-09-30T11:06:54.675Z,26.57
2022-09-30T11:09:35.197Z,26.54
2022-09-30T11:12:23.443Z,26.45
2022-09-30T11:15:16.790Z,26.61
2022-09-30T11:18:17.389Z,26.69
2022-09-30T11:20:53.429Z,26.66
2022-09-30T11:23:38.754Z,26.69
2022-09-30T11:26:18.968Z,26.75
2022-09-30T11:28:49.166Z,26.85
2022-09-30T11:31:33.048Z,26.96
2022-09-30T11:34:07.369Z,27.01
2022-09-30T11:36:56.501Z,27.07
2022-09-30T11:39:43.516Z,27.04
2022-09-30T11:42:25.476Z,27.05
2022-09-30T11:45:23.913Z,27.09
2022-09-30T11:48:29.325Z,26.96
2022-09-30T11:51:06.014Z,27.07
2022-09-30T11:53:45.285Z,27.12
2022-09-30T11:56:45.618Z,27.20
2022-09-30T11:59:21.518Z,27.21
2022-09-30T12:01:52.398Z,27.08
2022-09-30T12:04:29.659Z,27.20
2022-09-30T12:07:06.152Z,27.25
2022-09-30T12:10:04.887Z,27.20
2022-09-30T12:12:32.666Z,27.11
2022-09-30T12:15:03.137Z,27.13
2022-09-30T12:17:40.631Z,27.26
2022-09-30T12:20:18.252Z,27.19
2022-09-30T12:22:47.827Z,27.36
2022-09-30T12:25:24.855Z,27.37
2022-09-30T12:28:25.304Z,27.48
2022-09-30T12:31:06.001Z,27.52
2022-09-30T12:34:02.133Z,27.38
2022-09-30T12:36:40.411Z,27.53
2022-09-30T12:39:44.772Z,27.56
2022-09-30T12:42:19.339Z,27.38
2022-09-30T12:45:32.438Z,27.41
2022-09-30T12:48:12.831Z,27.09
2022-09-30T12:50:53.024Z,27.49
2022-09-30T12:53:33.164Z,27.53
2022-09-30T12:56:16.186Z,27.52
2022-09-30T12:58:55.476Z,27.50
2022-09-30T13:01:32.966Z,27.43
2022-09-30T13:04:00.809Z,27.41
2022-09-30T13:06:48.813Z,27.39
2022-09-30T13:09:31.437Z,27.43
2022-09-30T13:11:59.480Z,27.48
2022-09-30T13:14:43.570Z,27.36
2022-09-30T13:17:10.781Z,27.40
2022-09-30T13:19:42.893Z,27.31
2022-09-30T13:22:21.402Z,27.37
2022-09-30T13:25:00.922Z,27.26
2022-09-30T13:27:44.353Z,27.25
2022-09-30T13:30:14.737Z,27.22
2022-09-30T13:32:48.333Z,27.27
2022-09-30T13:35:35.522Z,27.35
2022-09-30T13:38:55.498Z,27.30
2022-09-30T13:41:25.214Z,27.28
2022-09-30T13:44:06.225Z,27.24
2022-09-30T13:46:44.174Z,27.26
2022-09-30T13:49:18.675Z,27.29
2022-09-30T13:51:46.715Z,27.36
2022-09-30T13:54:32.274Z,27.28
2022-09-30T13:57:02.730Z,27.35
2022-09-30T13:59:51.132Z,27.40
2022-09-30T14:02:37.019Z,27.34
2022-09-30T14:05:25.127Z,27.27
2022-09-30T14:08:14.698Z,27.30
2022-09-30T14:11:10.301Z,27.29
2022-09-30T14:13:51.365Z,27.25
2022-09-30T14:16:27.897Z,27.20
2022-09-30T14:19:19.830Z,27.24
2022-09-30T14:21:50.967Z,27.14
2022-09-30T14:24:37.268Z,27.13
2022-09-30T14:27:28.124Z,27.10
2022-09-30T14:30:14.514Z,27.13
2022-09-30T14:32:53.722Z,27.15
2022-09-30T14:35:24.635Z,27.17
2022-09-30T14:37:57.082Z,27.11
2022-09-30T14:40:29.298Z,27.04
2022-09-30T14:43:03.467Z,26.96
2022-09-30T14:45:38.913Z,26.98
2022-09-30T14:48:32.657Z,26.92
2022-09-30T14:51:08.233Z,26.87
2022-09-30T14:53:44.623Z,26.85
2022-09-30T14:56:27.612Z,26.72
2022-09-30T14:58:58.277Z,26.76
2022-09-30T15:01:31.080Z,26.49
2022-09-30T15:04:26.554Z,26.65
2022-09-30T15:06:54.648Z,26.52
2022-09-30T15:09:40.452Z,26.54
2022-09-30T15:12:12.233Z,26.43
2022-09-30T15:14:50.321Z,26.31
2022-09-30T15:17:25.178Z,26.26
2022-09-30T15:19:52.902Z,26.06
2022-09-30T15:22:22.011Z,25.99
2022-09-30T15:24:52.882Z,25.77
2022-09-30T15:27:26.263Z,25.70
2022-09-30T15:29:58.659Z,25.52
2022-09-30T15:32:35.725Z,25.36
2022-09-30T15:35:08.809Z,25.14
2022-09-30T15:37:37.780Z,25.02
2022-09-30T15:40:33.716Z,24.89
2022-09-30T15:43:12.156Z,24.74
2022-09-30T15:45:44.117Z,24.58
2022-09-30T15:48:27.384Z,24.47
2022-09-30T15:50:58.449Z,24.33
2022-09-30T15:53:47.323Z,24.20
2022-09-30T15:56:20.430Z,24.06
2022-09-30T15:58:57.934Z,23.95
2022-09-30T16:01:45.798Z,23.78
2022-09-30T16:04:16.352Z,23.69
2022-09-30T16:06:48.833Z,23.58
2022-09-30T16:09:22.424Z,23.47
2022-09-30T16:11:59.483Z,23.39
2022-09-30T16:14:31.322Z,23.17
2022-09-30T16:17:01.276Z,23.17
2022-09-30T16:19:30.465Z,23.05
2022-09-30T16:21:58.631Z,22.98
2022-09-30T16:24:29.026Z,22.94
2022-09-30T16:26:59.337Z,22.72
2022-09-30T16:29:28.102Z,22.74
2022-09-30T16:31:56.984Z,22.62
2022-09-30T16:34:26.602Z,22.59
2022-09-30T16:37:14.834Z,22.45
2022-09-30T16:39:42.359Z,22.39
2022-09-30T16:42:14.838Z,22.26
2022-09-30T16:44:44.649Z,22.15
2022-09-30T16:47:15.116Z,22.15
2022-09-30T16:49:43.404Z,22.01
2022-09-30T16:52:11.712Z,21.91
2022-09-30T16:54:39.814Z,21.88
2022-09-30T16:57:07.203Z,21.72
2022-09-30T16:59:34.848Z,21.72
2022-09-30T17:02:02.487Z,21.67
2022-09-30T17:04:29.836Z,21.57
2022-09-30T17:06:59.145Z,21.56
2022-09-30T17:09:26.491Z,21.49
2022-09-30T17:11:53.752Z,21.36
2022-09-30T17:14:21.280Z,21.35
2022-09-30T17:16:48.524Z,21.24
2022-09-30T17:19:15.829Z,21.19
2022-09-30T17:21:43.138Z,21.11
2022-09-30T17:24:10.626Z,21.05
2022-09-30T17:26:40.093Z,20.93
2022-09-30T17:31:58.822Z,20.93
2022-09-30T17:34:28.284Z,20.90
2022-09-30T17:36:56.617Z,20.81
2022-09-30T17:39:26.661Z,20.76
2022-09-30T17:42:12.325Z,20.74
2022-09-30T17:44:39.692Z,20.55
2022-09-30T17:47:07.032Z,20.52
2022-09-30T17:49:35.800Z,20.54
2022-09-30T17:52:04.099Z,20.54
2022-09-30T17:54:32.475Z,20.45
2022-09-30T17:56:59.783Z,20.41
2022-09-30T17:59:28.768Z,20.31
2022-09-30T18:01:56.864Z,20.22
2022-09-30T18:04:28.164Z,20.21
2022-09-30T18:06:57.289Z,20.31
2022-09-30T18:09:24.650Z,20.22
2022-09-30T18:11:54.069Z,20.19
2022-09-30T18:14:21.576Z,20.18
2022-09-30T18:16:49.136Z,20.12
2022-09-30T18:19:17.396Z,20.04
2022-09-30T18:21:47.833Z,19.85
2022-09-30T18:24:16.229Z,19.95
2022-09-30T18:26:45.413Z,19.90
2022-09-30T18:29:14.148Z,19.85
2022-09-30T18:31:41.693Z,19.77
2022-09-30T18:34:09.479Z,19.68
2022-09-30T18:36:37.545Z,19.57
2022-09-30T18:39:05.370Z,19.69
2022-09-30T18:41:35.283Z,19.57
2022-09-30T18:44:03.388Z,19.57
2022-09-30T18:46:31.989Z,19.60
2022-09-30T18:48:59.256Z,19.52
2022-09-30T18:51:26.633Z,19.46
2022-09-30T18:53:58.447Z,19.42
2022-09-30T18:56:32.271Z,19.34
2022-09-30T18:59:01.376Z,19.17
2022-09-30T19:01:28.879Z,19.32
2022-09-30T19:04:03.245Z,19.21
2022-09-30T19:06:30.875Z,19.13
2022-09-30T19:08:58.247Z,19.07
2022-09-30T19:11:26.828Z,18.99
2022-09-30T19:13:56.491Z,18.99
2022-09-30T19:16:25.315Z,18.87
2022-09-30T19:18:53.151Z,18.86
2022-09-30T19:21:22.874Z,18.87
2022-09-30T19:23:50.346Z,18.75
2022-09-30T19:26:17.734Z,18.81
2022-09-30T19:28:44.864Z,18.71
2022-09-30T19:31:17.727Z,18.74
2022-09-30T19:33:56.136Z,18.65
2022-09-30T19:36:26.876Z,18.67
2022-09-30T19:39:08.917Z,18.63
2022-09-30T19:41:38.454Z,18.44
2022-09-30T19:44:05.677Z,18.50
2022-09-30T19:46:33.157Z,18.42
2022-09-30T19:49:00.351Z,18.49
2022-09-30T19:51:30.927Z,18.44
2022-09-30T19:54:06.308Z,18.35
2022-09-30T19:56:36.590Z,18.32
2022-09-30T19:59:04.619Z,18.32
2022-09-30T20:01:35.019Z,18.17
2022-09-30T20:04:05.467Z,18.12
2022-09-30T20:06:34.775Z,18.04
2022-09-30T20:09:04.441Z,17.90
2022-09-30T20:11:34.583Z,17.95
2022-09-30T20:14:22.286Z,17.87
2022-09-30T20:16:50.000Z,17.77
2022-09-30T20:19:18.639Z,17.91
2022-09-30T20:21:46.727Z,17.85
2022-09-30T20:24:15.627Z,17.86
2022-09-30T20:26:45.051Z,17.84
2022-09-30T20:29:13.399Z,17.73
2022-09-30T20:31:42.808Z,17.83
2022-09-30T20:34:13.462Z,17.64
2022-09-30T20:36:41.529Z,17.73
2022-09-30T20:39:08.679Z,17.70
2022-09-30T20:41:38.638Z,17.66
2022-09-30T20:44:08.610Z,17.42
2022-09-30T20:46:36.113Z,17.50
2022-09-30T20:49:04.550Z,17.44
2022-09-30T20:51:32.434Z,17.52
2022-09-30T20:54:01.078Z,17.59
2022-09-30T20:56:44.055Z,17.46
2022-09-30T20:59:17.383Z,17.48
2022-09-30T21:01:45.053Z,17.41
2022-09-30T21:04:12.255Z,17.31
2022-09-30T21:06:39.732Z,17.40
2022-09-30T21:09:06.979Z,17.25
2022-09-30T21:11:34.432Z,17.32
2022-09-30T21:14:02.092Z,17.25
2022-09-30T21:16:29.812Z,17.33
2022-09-30T21:18:57.127Z,17.21
2022-09-30T21:21:25.849Z,17.26
2022-09-30T21:23:58.871Z,17.23
2022-09-30T21:26:29.086Z,17.17
2022-09-30T21:29:02.304Z,17.10
2022-09-30T21:31:30.275Z,16.99
2022-09-30T21:33:59.992Z,17.08
2022-09-30T21:36:28.508Z,17.13
2022-09-30T21:39:03.360Z,16.97
2022-09-30T21:41:33.218Z,16.98
2022-09-30T21:44:01.594Z,16.88
2022-09-30T21:46:29.733Z,16.74
2022-09-30T21:49:17.419Z,16.74
2022-09-30T21:51:44.941Z,16.61
2022-09-30T21:54:14.122Z,16.71
2022-09-30T21:56:43.072Z,16.61
2022-09-30T21:59:11.768Z,16.65
2022-09-30T22:01:39.772Z,16.53
2022-09-30T22:04:07.765Z,16.55
2022-09-30T22:06:35.205Z,16.55
2022-09-30T22:09:03.191Z,16.52
2022-09-30T22:11:31.508Z,16.53
2022-09-30T22:14:00.490Z,16.50
2022-09-30T22:16:35.278Z,16.34
2022-09-30T22:19:05.411Z,16.43
2022-09-30T22:21:35.987Z,16.31
2022-09-30T22:24:05.853Z,16.36
2022-09-30T22:26:33.885Z,16.27
2022-09-30T22:29:05.253Z,16.16
2022-09-30T22:31:33.679Z,16.15
2022-09-30T22:34:23.250Z,16.06
2022-09-30T22:37:09.538Z,16.12
2022-09-30T22:39:37.272Z,15.96
2022-09-30T22:42:04.814Z,16.04
2022-09-30T22:44:34.031Z,16.09
2022-09-30T22:47:02.127Z,16.22
2022-09-30T22:49:33.511Z,16.27
2022-09-30T22:52:02.163Z,16.08
2022-09-30T22:54:30.446Z,16.01
2022-09-30T22:56:59.435Z,15.95
2022-09-30T22:59:28.798Z,15.87
2022-09-30T23:01:59.607Z,15.89
2022-09-30T23:04:29.140Z,15.88
2022-09-30T23:06:56.634Z,15.76
2022-09-30T23:09:24.363Z,15.79
2022-09-30T23:11:54.525Z,15.82
2022-09-30T23:14:22.870Z,15.77
2022-09-30T23:16:50.996Z,15.80
2022-09-30T23:19:20.530Z,15.78
2022-09-30T23:21:47.912Z,15.73
2022-09-30T23:24:15.937Z,15.65
2022-09-30T23:26:43.885Z,15.57
2022-09-30T23:29:13.424Z,15.61
2022-09-30T23:31:41.342Z,15.62
2022-09-30T23:34:09.362Z,15.61
2022-09-30T23:36:37.845Z,15.63
2022-09-30T23:39:12.930Z,15.58
2022-09-30T23:41:41.048Z,15.47
2022-09-30T23:44:10.133Z,15.42
2022-09-30T23:46:37.604Z,15.37
2022-09-30T23:49:05.148Z,15.45
2022-09-30T23:51:34.455Z,15.42
2022-09-30T23:54:02.466Z,15.39
2022-09-30T23:56:29.779Z,15.31
2022-09-30T23:58:57.490Z,15.35
